KMUT

Muscatine Municipal Airport

Muscatine, Iowa, USA
METAR KMUT 231415Z AUTO 28007KT 10SM OVC009 02/00 A3022 RMK AO2
Observed Flight Rules
Feb-23 @ 14:15 UTC (16 minutes ago) Instrument Flight Rules
Wind Visibility Clouds
280° at 7 knots 10 miles
  • Overcast at 900' AGL
Temperatures Readings
Current 2°C / 36°F
Dewpoint 0°C / 32°F
Humidity 87%
Altimeter 30.22" Hg
Pressure 1023 hPa
Elevation 167
METAR KMUT 231415Z AUTO 28007KT 10SM OVC009 02/00 A3022 RMK AO2
Observed Flight Rules
Feb-23 @ 14:15 UTC
(16 minutes ago)
IFR
Wind Visibility
280° at 7 knots 10 miles
Clouds
  • Overcast at 900' AGL
Temperature Dewpoint
2°C / 36°F 0°C / 32°F
Humidity Altimeter Pressure
87% 30.22" Hg 1023 hPa